createdAt,value
2023-09-11T00:02:35.273Z,100.00
2023-09-11T00:05:58.684Z,100.00
2023-09-11T00:09:05.891Z,100.00
2023-09-11T00:12:20.207Z,100.00
2023-09-11T00:15:34.179Z,100.00
2023-09-11T00:18:46.985Z,100.00
2023-09-11T00:21:59.031Z,100.00
2023-09-11T00:25:12.724Z,100.00
2023-09-11T00:28:24.975Z,100.00
2023-09-11T00:31:37.140Z,100.00
2023-09-11T00:34:49.901Z,100.00
2023-09-11T00:38:02.361Z,100.00
2023-09-11T00:41:14.654Z,100.00
2023-09-11T00:44:26.979Z,100.00
2023-09-11T00:47:39.787Z,100.00
2023-09-11T00:50:52.537Z,100.00
2023-09-11T00:54:04.860Z,100.00
2023-09-11T00:57:19.375Z,100.00
2023-09-11T01:00:32.247Z,100.00
2023-09-11T01:03:44.672Z,100.00
2023-09-11T01:06:56.965Z,100.00
2023-09-11T01:10:11.521Z,100.00
2023-09-11T01:13:24.014Z,100.00
2023-09-11T01:16:42.086Z,100.00
2023-09-11T01:20:20.333Z,100.00
2023-09-11T01:24:07.703Z,100.00
2023-09-11T01:27:46.295Z,100.00
2023-09-11T01:30:58.819Z,100.00
2023-09-11T01:34:12.617Z,100.00
2023-09-11T01:37:25.051Z,100.00
2023-09-11T01:40:40.333Z,100.00
2023-09-11T01:43:55.676Z,100.00
2023-09-11T01:47:09.955Z,100.00
2023-09-11T01:50:25.550Z,100.00
2023-09-11T01:53:38.615Z,100.00
2023-09-11T01:56:51.417Z,100.00
2023-09-11T02:00:04.984Z,100.00
2023-09-11T02:03:19.381Z,100.00
2023-09-11T02:06:32.044Z,100.00
2023-09-11T02:09:44.328Z,100.00
2023-09-11T02:12:56.515Z,100.00
2023-09-11T02:16:11.106Z,100.00
2023-09-11T02:19:23.319Z,100.00
2023-09-11T02:22:36.290Z,100.00
2023-09-11T02:25:49.501Z,100.00
2023-09-11T02:29:02.049Z,100.00
2023-09-11T02:32:14.842Z,100.00
2023-09-11T02:35:27.062Z,100.00
2023-09-11T02:38:39.489Z,100.00
2023-09-11T02:41:52.196Z,100.00
2023-09-11T02:45:04.416Z,100.00
2023-09-11T02:48:17.163Z,100.00
2023-09-11T02:51:29.920Z,100.00
2023-09-11T02:54:42.169Z,100.00
2023-09-11T02:57:54.519Z,100.00
2023-09-11T03:01:11.201Z,100.00
2023-09-11T03:04:23.430Z,100.00
2023-09-11T03:07:35.676Z,100.00
2023-09-11T03:10:54.234Z,100.00
2023-09-11T03:14:06.387Z,100.00
2023-09-11T03:17:18.475Z,100.00
2023-09-11T03:20:31.130Z,100.00
2023-09-11T03:23:43.620Z,100.00
2023-09-11T03:26:56.601Z,100.00
2023-09-11T03:30:09.436Z,100.00
2023-09-11T03:33:22.292Z,100.00
2023-09-11T03:36:34.694Z,100.00
2023-09-11T03:39:47.259Z,100.00
2023-09-11T03:42:59.517Z,100.00
2023-09-11T03:46:13.811Z,100.00
2023-09-11T03:49:27.032Z,100.00
2023-09-11T03:52:39.312Z,100.00
2023-09-11T03:55:51.861Z,100.00
2023-09-11T03:59:04.490Z,100.00
2023-09-11T04:02:16.969Z,100.00
2023-09-11T04:05:29.364Z,100.00
2023-09-11T04:08:41.832Z,100.00
2023-09-11T04:11:54.288Z,100.00
2023-09-11T04:15:06.669Z,100.00
2023-09-11T04:18:19.450Z,100.00
2023-09-11T04:21:32.839Z,100.00
2023-09-11T04:24:45.216Z,100.00
2023-09-11T04:27:57.482Z,100.00
2023-09-11T04:31:09.808Z,100.00
2023-09-11T04:34:23.736Z,100.00
2023-09-11T04:37:36.012Z,100.00
2023-09-11T04:40:48.572Z,100.00
2023-09-11T04:44:00.836Z,100.00
2023-09-11T04:47:16.009Z,100.00
2023-09-11T04:50:28.290Z,100.00
2023-09-11T04:53:40.537Z,100.00
2023-09-11T04:56:53.109Z,100.00
2023-09-11T05:00:07.479Z,100.00
2023-09-11T05:03:20.015Z,100.00
2023-09-11T05:06:32.839Z,100.00
2023-09-11T05:09:47.290Z,100.00
2023-09-11T05:13:00.559Z,100.00
2023-09-11T05:16:13.850Z,100.00
2023-09-11T05:19:26.031Z,100.00
2023-09-11T05:22:38.557Z,100.00
2023-09-11T05:25:52.551Z,100.00
2023-09-11T05:29:04.913Z,100.00
2023-09-11T05:32:17.119Z,100.00
2023-09-11T05:35:29.710Z,100.00
2023-09-11T05:38:42.247Z,100.00
2023-09-11T05:41:55.046Z,100.00
2023-09-11T05:45:07.759Z,100.00
2023-09-11T05:48:20.302Z,100.00
2023-09-11T05:51:32.754Z,100.00
2023-09-11T05:54:45.231Z,100.00
2023-09-11T05:57:57.333Z,100.00
2023-09-11T06:01:09.757Z,100.00
2023-09-11T06:04:21.938Z,100.00
2023-09-11T06:07:34.100Z,100.00
2023-09-11T06:10:47.384Z,100.00
2023-09-11T06:13:59.749Z,100.00
2023-09-11T06:17:12.414Z,100.00
2023-09-11T06:20:25.032Z,100.00
2023-09-11T06:23:37.506Z,99.83
2023-09-11T06:26:51.116Z,99.01
2023-09-11T06:30:05.511Z,96.81
2023-09-11T06:33:18.407Z,95.78
2023-09-11T06:36:30.794Z,93.82
2023-09-11T06:39:43.407Z,94.59
2023-09-11T06:42:55.735Z,92.66
2023-09-11T06:46:08.268Z,92.81
2023-09-11T06:49:20.744Z,90.58
2023-09-11T06:52:35.421Z,88.82
2023-09-11T06:55:54.952Z,85.54
2023-09-11T06:59:07.248Z,86.75
2023-09-11T07:02:19.474Z,86.93
2023-09-11T07:05:31.841Z,85.50
2023-09-11T07:08:44.661Z,83.71
2023-09-11T07:11:58.814Z,82.87
2023-09-11T07:15:13.235Z,82.61
2023-09-11T07:18:25.544Z,79.44
2023-09-11T07:21:37.993Z,75.43
2023-09-11T07:24:50.453Z,74.81
2023-09-11T07:28:03.968Z,73.10
2023-09-11T07:31:16.271Z,69.81
2023-09-11T07:34:28.679Z,70.45
2023-09-11T07:37:41.061Z,71.45
2023-09-11T07:40:53.341Z,68.72
2023-09-11T07:44:06.321Z,69.28
2023-09-11T07:47:18.578Z,65.75
2023-09-11T07:50:31.280Z,65.92
2023-09-11T07:53:44.398Z,67.00
2023-09-11T07:56:56.741Z,63.86
2023-09-11T08:00:10.588Z,65.23
2023-09-11T08:03:23.363Z,63.87
2023-09-11T08:06:35.852Z,62.86
2023-09-11T08:09:48.083Z,60.43
2023-09-11T08:13:00.861Z,58.70
2023-09-11T08:16:13.289Z,56.49
2023-09-11T08:19:25.710Z,58.80
2023-09-11T08:22:38.588Z,57.87
2023-09-11T08:25:51.206Z,52.24
2023-09-11T08:29:04.448Z,51.21
2023-09-11T08:32:16.896Z,50.46
2023-09-11T08:35:29.356Z,50.98
2023-09-11T08:38:44.334Z,50.67
2023-09-11T08:42:00.359Z,49.57
2023-09-11T08:45:14.810Z,49.57
2023-09-11T08:48:30.829Z,48.45
2023-09-11T08:51:48.313Z,51.57
2023-09-11T08:55:05.146Z,50.04
2023-09-11T08:58:23.605Z,50.78
2023-09-11T09:01:37.718Z,48.13
2023-09-11T09:04:51.119Z,47.21
2023-09-11T09:08:04.020Z,46.06
2023-09-11T09:11:16.343Z,45.40
2023-09-11T09:14:30.264Z,45.55
2023-09-11T09:17:43.899Z,44.40
2023-09-11T09:20:57.378Z,43.15
2023-09-11T09:24:19.565Z,43.15
2023-09-11T09:27:33.752Z,42.63
2023-09-11T09:30:47.330Z,42.69
2023-09-11T09:34:01.604Z,41.19
2023-09-11T09:37:21.841Z,40.50
2023-09-11T09:40:41.629Z,40.19
2023-09-11T09:44:01.309Z,40.63
2023-09-11T09:47:17.726Z,40.11
2023-09-11T09:50:30.085Z,38.81
2023-09-11T09:53:46.859Z,39.61
2023-09-11T09:57:01.742Z,38.13
2023-09-11T10:00:19.430Z,38.50
2023-09-11T10:03:32.934Z,39.42
2023-09-11T10:06:46.644Z,41.82
2023-09-11T10:09:59.094Z,39.92
2023-09-11T10:13:15.388Z,39.55
2023-09-11T10:16:28.410Z,40.03
2023-09-11T10:19:42.416Z,41.39
2023-09-11T10:22:54.757Z,41.63
2023-09-11T10:26:12.560Z,41.53
2023-09-11T10:29:30.510Z,41.01
2023-09-11T10:32:58.951Z,41.98
2023-09-11T10:36:17.440Z,40.87
2023-09-11T10:39:30.041Z,42.82
2023-09-11T10:42:43.094Z,42.76
2023-09-11T10:45:55.838Z,43.25
2023-09-11T10:49:20.177Z,40.26
2023-09-11T10:52:32.821Z,41.35
2023-09-11T10:55:45.384Z,42.67
2023-09-11T10:59:00.013Z,41.09
2023-09-11T11:02:13.110Z,41.76
2023-09-11T11:05:25.859Z,42.92
2023-09-11T11:08:42.729Z,41.22
2023-09-11T11:11:55.400Z,44.69
2023-09-11T11:15:29.588Z,42.53
2023-09-11T11:18:42.475Z,41.51
2023-09-11T11:21:55.695Z,45.94
2023-09-11T11:25:11.549Z,44.66
2023-09-11T11:28:30.802Z,43.96
2023-09-11T11:31:44.604Z,45.25
2023-09-11T11:34:57.570Z,42.21
2023-09-11T11:38:10.292Z,41.90
2023-09-11T11:41:22.584Z,42.12
2023-09-11T11:44:37.022Z,43.08
2023-09-11T11:47:50.249Z,42.97
2023-09-11T11:51:03.290Z,43.64
2023-09-11T11:54:27.096Z,42.14
2023-09-11T11:57:41.369Z,42.09
2023-09-11T12:01:06.947Z,42.63
2023-09-11T12:04:32.185Z,43.49
2023-09-11T12:07:34.156Z,45.70
2023-09-11T12:10:51.045Z,44.88
2023-09-11T12:14:03.854Z,43.41
2023-09-11T12:17:18.355Z,45.36
2023-09-11T12:20:31.276Z,44.58
2023-09-11T12:23:43.582Z,46.66
2023-09-11T12:26:56.334Z,46.18
2023-09-11T12:30:10.455Z,44.04
2023-09-11T12:33:28.357Z,43.58
2023-09-11T12:36:41.227Z,43.89
2023-09-11T12:39:55.078Z,45.65
2023-09-11T12:43:11.787Z,47.12
2023-09-11T12:46:24.283Z,47.43
2023-09-11T12:49:36.811Z,46.19
2023-09-11T12:52:51.897Z,45.53
2023-09-11T12:56:04.186Z,47.90
2023-09-11T12:59:17.540Z,46.81
2023-09-11T13:02:29.959Z,48.21
2023-09-11T13:05:44.894Z,46.35
2023-09-11T13:08:59.321Z,45.56
2023-09-11T13:12:12.490Z,47.74
2023-09-11T13:15:25.805Z,48.82
2023-09-11T13:18:38.281Z,49.25
2023-09-11T13:21:50.646Z,47.50
2023-09-11T13:25:02.962Z,46.27
2023-09-11T13:28:15.891Z,46.41
2023-09-11T13:31:28.075Z,46.19
2023-09-11T13:34:40.244Z,46.73
2023-09-11T13:37:52.752Z,47.83
2023-09-11T13:41:05.021Z,46.73
2023-09-11T13:44:18.292Z,48.60
2023-09-11T13:47:30.906Z,49.70
2023-09-11T13:50:43.271Z,49.08
2023-09-11T13:53:55.817Z,48.15
2023-09-11T13:57:08.563Z,47.66
2023-09-11T14:00:23.712Z,47.45
2023-09-11T14:03:37.094Z,49.53
2023-09-11T14:06:51.167Z,50.39
2023-09-11T14:10:05.552Z,51.27
2023-09-11T14:13:19.956Z,51.45
2023-09-11T14:16:32.268Z,51.87
2023-09-11T14:19:44.686Z,51.70
2023-09-11T14:22:57.324Z,51.80
2023-09-11T14:26:09.727Z,52.46
2023-09-11T14:29:22.356Z,54.71
2023-09-11T14:32:34.771Z,53.95
2023-09-11T14:35:47.058Z,55.68
2023-09-11T14:39:01.617Z,56.39
2023-09-11T14:42:15.493Z,55.37
2023-09-11T14:45:28.435Z,55.75
2023-09-11T14:48:40.994Z,56.54
2023-09-11T14:51:53.838Z,56.22
2023-09-11T14:55:06.801Z,56.22
2023-09-11T14:58:19.171Z,56.05
2023-09-11T15:01:32.681Z,56.19
2023-09-11T15:04:51.011Z,55.35
2023-09-11T15:07:59.616Z,54.47
2023-09-11T15:11:12.209Z,56.89
2023-09-11T15:14:24.726Z,55.67
2023-09-11T15:17:37.116Z,53.32
2023-09-11T15:20:50.955Z,54.60
2023-09-11T15:24:04.436Z,55.25
2023-09-11T15:27:16.746Z,57.41
2023-09-11T15:30:29.085Z,53.65
2023-09-11T15:33:41.648Z,55.17
2023-09-11T15:36:53.929Z,54.84
2023-09-11T15:40:06.279Z,57.24
2023-09-11T15:43:18.508Z,59.93
2023-09-11T15:46:41.228Z,60.44
2023-09-11T15:49:45.290Z,59.07
2023-09-11T15:52:57.593Z,59.57
2023-09-11T15:56:10.855Z,61.81
2023-09-11T15:59:23.283Z,62.02
2023-09-11T16:02:36.696Z,62.69
2023-09-11T16:05:50.319Z,62.22
2023-09-11T16:09:03.086Z,63.94
2023-09-11T16:12:15.833Z,65.04
2023-09-11T16:15:28.803Z,64.86
2023-09-11T16:18:41.737Z,65.59
2023-09-11T16:21:54.916Z,66.80
2023-09-11T16:25:07.596Z,67.27
2023-09-11T16:28:20.936Z,67.85
2023-09-11T16:31:33.309Z,67.98
2023-09-11T16:34:45.663Z,69.87
2023-09-11T16:37:58.404Z,72.75
2023-09-11T16:41:10.793Z,74.09
2023-09-11T16:44:24.101Z,75.32
2023-09-11T16:47:37.292Z,77.62
2023-09-11T16:50:49.729Z,78.75
2023-09-11T16:54:02.552Z,79.45
2023-09-11T16:57:15.268Z,80.22
2023-09-11T17:00:28.187Z,80.70
2023-09-11T17:03:40.686Z,81.04
2023-09-11T17:06:53.451Z,82.71
2023-09-11T17:10:05.865Z,84.48
2023-09-11T17:13:18.934Z,86.13
2023-09-11T17:16:33.590Z,87.33
2023-09-11T17:19:47.049Z,88.93
2023-09-11T17:22:59.931Z,90.24
2023-09-11T17:26:14.264Z,91.94
2023-09-11T17:29:28.870Z,92.75
2023-09-11T17:32:41.347Z,93.59
2023-09-11T17:35:54.064Z,94.22
2023-09-11T17:39:07.076Z,95.57
2023-09-11T17:42:19.648Z,96.82
2023-09-11T17:45:32.597Z,97.43
2023-09-11T17:48:46.314Z,92.21
2023-09-11T17:51:58.895Z,90.22
2023-09-11T17:55:13.087Z,89.21
2023-09-11T17:58:26.383Z,87.16
2023-09-11T18:01:38.516Z,86.92
2023-09-11T18:04:51.335Z,87.00
2023-09-11T18:08:05.726Z,87.64
2023-09-11T18:11:20.610Z,88.36
2023-09-11T18:14:33.643Z,88.45
2023-09-11T18:17:46.081Z,88.31
2023-09-11T18:20:59.721Z,88.17
2023-09-11T18:24:13.469Z,88.76
2023-09-11T18:27:26.125Z,87.77
2023-09-11T18:30:40.975Z,87.04
2023-09-11T18:33:53.352Z,87.72
2023-09-11T18:37:06.336Z,87.89
2023-09-11T18:40:19.535Z,87.69
2023-09-11T18:43:32.434Z,88.19
2023-09-11T18:46:45.416Z,88.86
2023-09-11T18:49:57.805Z,88.79
2023-09-11T18:53:10.641Z,89.25
2023-09-11T18:56:23.815Z,91.67
2023-09-11T18:59:36.583Z,89.83
2023-09-11T19:02:48.992Z,93.83
2023-09-11T19:06:01.983Z,94.58
2023-09-11T19:09:15.031Z,96.77
2023-09-11T19:12:27.585Z,97.87
2023-09-11T19:15:41.422Z,97.98
2023-09-11T19:18:54.051Z,97.82
2023-09-11T19:22:07.820Z,97.18
2023-09-11T19:25:20.735Z,97.66
2023-09-11T19:28:33.496Z,97.85
2023-09-11T19:31:45.881Z,98.28
2023-09-11T19:35:00.650Z,98.35
2023-09-11T19:38:13.566Z,98.75
2023-09-11T19:41:26.225Z,98.59
2023-09-11T19:44:38.598Z,99.34
2023-09-11T19:47:51.182Z,100.00
2023-09-11T19:51:04.500Z,100.00
2023-09-11T19:54:18.636Z,100.00
2023-09-11T19:57:34.010Z,100.00
2023-09-11T20:00:46.392Z,100.00
2023-09-11T20:03:59.300Z,100.00
2023-09-11T20:07:12.314Z,100.00
2023-09-11T20:10:25.485Z,100.00
2023-09-11T20:13:37.670Z,100.00
2023-09-11T20:16:50.140Z,100.00
2023-09-11T20:20:03.131Z,100.00
2023-09-11T20:23:15.671Z,100.00
2023-09-11T20:26:28.343Z,100.00
2023-09-11T20:29:40.930Z,100.00
2023-09-11T20:32:53.407Z,100.00
2023-09-11T20:36:05.935Z,100.00
2023-09-11T20:39:18.812Z,100.00
2023-09-11T20:42:31.243Z,100.00
2023-09-11T20:45:43.755Z,100.00
2023-09-11T20:48:58.752Z,100.00
2023-09-11T20:52:11.967Z,100.00
2023-09-11T20:55:24.682Z,100.00
2023-09-11T20:58:37.596Z,100.00
2023-09-11T21:01:50.242Z,100.00
2023-09-11T21:05:02.883Z,100.00
2023-09-11T21:08:15.694Z,100.00
2023-09-11T21:11:28.644Z,100.00
2023-09-11T21:14:41.028Z,100.00
2023-09-11T21:17:54.498Z,100.00
2023-09-11T21:21:06.893Z,100.00
2023-09-11T21:24:19.100Z,100.00
2023-09-11T21:27:31.377Z,100.00
2023-09-11T21:30:43.733Z,100.00
2023-09-11T21:33:56.182Z,100.00
2023-09-11T21:37:08.538Z,100.00
2023-09-11T21:40:21.552Z,100.00
2023-09-11T21:43:33.663Z,100.00
2023-09-11T21:46:45.965Z,100.00
2023-09-11T21:49:58.414Z,100.00
2023-09-11T21:53:10.725Z,100.00
2023-09-11T21:56:22.752Z,100.00
2023-09-11T21:59:35.343Z,100.00
2023-09-11T22:02:47.752Z,100.00
2023-09-11T22:06:02.756Z,100.00
2023-09-11T22:09:15.410Z,100.00
2023-09-11T22:12:27.762Z,100.00
2023-09-11T22:15:43.603Z,100.00
2023-09-11T22:18:55.756Z,100.00
2023-09-11T22:22:08.220Z,100.00
2023-09-11T22:25:20.351Z,100.00
2023-09-11T22:28:32.664Z,100.00
2023-09-11T22:31:45.071Z,100.00
2023-09-11T22:34:57.369Z,100.00
2023-09-11T22:38:12.383Z,100.00
2023-09-11T22:41:25.270Z,100.00
2023-09-11T22:44:40.462Z,100.00
2023-09-11T22:47:55.167Z,100.00
2023-09-11T22:51:12.617Z,100.00
2023-09-11T22:54:25.046Z,100.00
2023-09-11T22:57:37.421Z,100.00
2023-09-11T23:00:49.978Z,100.00
2023-09-11T23:04:02.320Z,100.00
2023-09-11T23:07:14.697Z,100.00
2023-09-11T23:10:27.025Z,100.00
2023-09-11T23:13:39.309Z,100.00
2023-09-11T23:16:51.421Z,100.00
2023-09-11T23:20:05.705Z,100.00
2023-09-11T23:23:17.780Z,100.00
2023-09-11T23:26:30.233Z,100.00
2023-09-11T23:29:42.696Z,100.00
2023-09-11T23:32:55.314Z,100.00
2023-09-11T23:36:09.077Z,100.00
2023-09-11T23:39:21.621Z,100.00
2023-09-11T23:42:33.954Z,100.00
2023-09-11T23:45:47.811Z,100.00
2023-09-11T23:49:00.297Z,100.00
2023-09-11T23:52:25.381Z,100.00
2023-09-11T23:55:29.346Z,100.00
2023-09-11T23:58:42.097Z,100.00
